createdAt,value
2018-04-12T00:00:33.344Z,74.20
2018-04-12T00:03:00.888Z,74.70
2018-04-12T00:05:28.483Z,75.00
2018-04-12T00:07:56.028Z,74.70
2018-04-12T00:10:23.594Z,74.50
2018-04-12T00:12:51.135Z,75.20
2018-04-12T00:15:18.702Z,75.20
2018-04-12T00:17:46.239Z,74.90
2018-04-12T00:20:13.991Z,74.70
2018-04-12T00:22:41.528Z,74.70
2018-04-12T00:25:09.930Z,75.50
2018-04-12T00:27:37.457Z,75.00
2018-04-12T00:30:05.061Z,75.00
2018-04-12T00:32:32.604Z,74.90
2018-04-12T00:35:00.952Z,74.70
2018-04-12T00:37:28.498Z,74.70
2018-04-12T00:39:56.063Z,75.00
2018-04-12T00:42:23.611Z,74.50
2018-04-12T00:44:51.183Z,74.70
2018-04-12T00:47:18.906Z,74.80
2018-04-12T00:49:46.483Z,74.80
2018-04-12T00:52:14.024Z,74.50
2018-04-12T00:54:41.592Z,74.40
2018-04-12T00:57:09.124Z,74.80
2018-04-12T00:59:36.709Z,75.10
2018-04-12T01:02:04.243Z,75.20
2018-04-12T01:04:31.812Z,75.30
2018-04-12T01:06:59.359Z,75.20
2018-04-12T01:09:27.065Z,75.00
2018-04-12T01:11:54.608Z,75.20
2018-04-12T01:14:22.179Z,75.20
2018-04-12T01:16:49.751Z,74.70
2018-04-12T01:19:17.348Z,75.50
2018-04-12T01:21:45.672Z,75.50
2018-04-12T01:24:13.201Z,75.50
2018-04-12T01:26:40.767Z,75.50
2018-04-12T01:29:08.311Z,75.60
2018-04-12T01:31:35.862Z,75.40
2018-04-12T01:34:04.167Z,75.00
2018-04-12T01:36:31.742Z,74.90
2018-04-12T01:38:59.388Z,75.10
2018-04-12T01:41:26.923Z,75.90
2018-04-12T01:43:55.260Z,75.60
2018-04-12T01:46:22.797Z,75.60
2018-04-12T01:48:50.372Z,75.20
2018-04-12T01:51:18.064Z,75.20
2018-04-12T01:53:45.638Z,75.20
2018-04-12T01:56:13.960Z,75.40
2018-04-12T01:58:41.527Z,75.40
2018-04-12T02:01:09.063Z,75.70
2018-04-12T02:03:36.623Z,74.90
2018-04-12T02:06:04.177Z,75.30
2018-04-12T02:08:31.741Z,75.20
2018-04-12T02:10:59.275Z,74.90
2018-04-12T02:13:27.602Z,74.90
2018-04-12T02:15:55.148Z,74.80
2018-04-12T02:18:22.708Z,74.70
2018-04-12T02:20:50.257Z,74.60
2018-04-12T02:23:17.967Z,75.10
2018-04-12T02:25:45.505Z,74.60
2018-04-12T02:28:13.077Z,74.60
2018-04-12T02:30:40.617Z,74.50
2018-04-12T02:33:08.388Z,74.70
2018-04-12T02:35:35.926Z,74.60
2018-04-12T02:38:03.467Z,74.20
2018-04-12T02:40:31.047Z,74.30
2018-04-12T02:42:58.768Z,74.30
2018-04-12T02:45:26.359Z,74.40
2018-04-12T02:47:53.902Z,74.30
2018-04-12T02:50:21.468Z,74.30
2018-04-12T02:52:49.785Z,74.30
2018-04-12T02:55:17.336Z,74.30
2018-04-12T02:57:44.899Z,74.30
2018-04-12T03:00:12.455Z,74.10
2018-04-12T03:02:40.008Z,74.10
2018-04-12T03:05:07.578Z,74.00
2018-04-12T03:07:35.159Z,74.10
2018-04-12T03:10:02.710Z,74.30
2018-04-12T03:12:30.284Z,74.60
2018-04-12T03:14:57.832Z,74.70
2018-04-12T03:17:25.408Z,74.50
2018-04-12T03:19:52.959Z,74.90
2018-04-12T03:22:20.521Z,74.90
2018-04-12T03:24:49.556Z,74.80
2018-04-12T03:27:17.247Z,74.70
2018-04-12T03:29:44.783Z,74.80
2018-04-12T03:32:12.344Z,75.60
2018-04-12T03:34:39.903Z,74.90
2018-04-12T03:37:07.474Z,74.90
2018-04-12T03:39:35.031Z,74.70
2018-04-12T03:42:02.597Z,74.90
2018-04-12T03:44:30.131Z,74.90
2018-04-12T03:46:57.697Z,74.90
2018-04-12T03:49:26.191Z,74.90
2018-04-12T03:51:53.738Z,75.00
2018-04-12T03:54:21.321Z,75.20
2018-04-12T03:56:48.911Z,74.90
2018-04-12T03:59:16.471Z,74.70
2018-04-12T04:01:44.293Z,75.00
2018-04-12T04:04:11.791Z,74.70
2018-04-12T04:06:39.392Z,74.90
2018-04-12T04:09:06.968Z,74.70
2018-04-12T04:11:34.511Z,74.90
2018-04-12T04:14:03.121Z,75.00
2018-04-12T04:16:42.476Z,74.90
2018-04-12T04:19:21.859Z,75.00
2018-04-12T04:21:50.155Z,75.30
2018-04-12T04:24:17.716Z,75.30
2018-04-12T04:26:45.255Z,75.40
2018-04-12T04:29:13.592Z,75.10
2018-04-12T04:31:41.329Z,75.00
2018-04-12T04:34:08.900Z,75.10
2018-04-12T04:36:36.435Z,75.30
2018-04-12T04:39:04.116Z,75.30
2018-04-12T04:41:32.488Z,75.70
2018-04-12T04:44:00.058Z,75.60
2018-04-12T04:46:27.603Z,75.40
2018-04-12T04:48:55.180Z,75.10
2018-04-12T04:51:22.725Z,75.00
2018-04-12T04:53:50.293Z,75.90
2018-04-12T04:56:17.882Z,75.40
2018-04-12T04:58:45.428Z,75.30
2018-04-12T05:01:13.132Z,75.50
2018-04-12T05:03:41.443Z,74.90
2018-04-12T05:06:09.151Z,74.90
2018-04-12T05:08:36.701Z,74.90
2018-04-12T05:11:04.292Z,74.90
2018-04-12T05:13:31.851Z,75.00
2018-04-12T05:16:00.166Z,73.90
2018-04-12T05:18:27.708Z,73.90
2018-04-12T05:20:55.285Z,74.30
2018-04-12T05:23:22.844Z,74.10
2018-04-12T05:25:50.370Z,74.10
2018-04-12T05:28:18.694Z,73.90
2018-04-12T05:30:46.235Z,73.90
2018-04-12T05:33:13.889Z,73.60
2018-04-12T05:35:41.484Z,73.90
2018-04-12T05:38:09.059Z,74.10
2018-04-12T05:40:36.611Z,74.30
2018-04-12T05:43:04.167Z,74.00
2018-04-12T05:45:31.715Z,74.30
2018-04-12T05:47:59.282Z,73.90
2018-04-12T05:50:26.827Z,74.40
2018-04-12T05:52:54.462Z,74.50
2018-04-12T05:55:21.996Z,74.30
2018-04-12T05:57:49.536Z,74.20
2018-04-12T06:00:17.101Z,74.00
2018-04-12T06:02:46.148Z,73.70
2018-04-12T06:05:13.690Z,73.70
2018-04-12T06:07:41.248Z,73.70
2018-04-12T06:10:08.819Z,73.40
2018-04-12T06:12:36.347Z,72.90
2018-04-12T06:15:04.735Z,72.70
2018-04-12T06:17:32.268Z,72.70
2018-04-12T06:19:59.843Z,72.80
2018-04-12T06:22:27.397Z,72.50
2018-04-12T06:24:55.003Z,72.30
2018-04-12T06:27:22.585Z,72.00
2018-04-12T06:29:50.156Z,72.00
2018-04-12T06:32:18.603Z,71.60
2018-04-12T06:34:46.171Z,71.30
2018-04-12T06:37:13.732Z,71.10
2018-04-12T06:39:41.381Z,70.90
2018-04-12T06:42:08.924Z,70.70
2018-04-12T06:44:38.276Z,70.90
2018-04-12T06:47:05.808Z,70.90
2018-04-12T06:49:33.387Z,70.40
2018-04-12T06:52:00.931Z,70.40
2018-04-12T06:54:28.511Z,70.60
2018-04-12T06:56:56.064Z,70.70
2018-04-12T06:59:23.663Z,70.40
2018-04-12T07:01:51.205Z,70.30
2018-04-12T07:04:18.777Z,70.40
2018-04-12T07:06:46.343Z,70.40
2018-04-12T07:09:14.821Z,70.00
2018-04-12T07:11:43.219Z,70.00
2018-04-12T07:14:10.763Z,70.00
2018-04-12T07:16:39.083Z,69.40
2018-04-12T07:19:06.648Z,70.00
2018-04-12T07:21:34.211Z,69.40
2018-04-12T07:24:01.772Z,70.20
2018-04-12T07:26:29.331Z,69.70
2018-04-12T07:28:56.884Z,69.50
2018-04-12T07:31:24.429Z,69.10
2018-04-12T07:33:51.991Z,69.00
2018-04-12T07:36:19.516Z,69.30
2018-04-12T07:38:47.874Z,68.20
2018-04-12T07:41:15.432Z,68.20
2018-04-12T07:43:44.152Z,68.70
2018-04-12T07:46:12.451Z,67.70
2018-04-12T07:48:40.042Z,67.60
2018-04-12T07:51:07.621Z,67.60
2018-04-12T07:53:35.179Z,68.20
2018-04-12T07:56:02.716Z,67.30
2018-04-12T07:58:30.315Z,67.10
2018-04-12T08:00:58.631Z,66.80
2018-04-12T08:03:26.195Z,66.70
2018-04-12T08:05:53.763Z,66.70
2018-04-12T08:08:21.364Z,66.50
2018-04-12T08:10:49.677Z,66.00
2018-04-12T08:13:17.249Z,65.90
2018-04-12T08:15:45.657Z,65.90
2018-04-12T08:18:13.511Z,65.90
2018-04-12T08:20:41.158Z,65.90
2018-04-12T08:23:08.792Z,66.00
2018-04-12T08:25:36.335Z,65.90
2018-04-12T08:28:04.033Z,65.60
2018-04-12T08:30:31.674Z,65.60
2018-04-12T08:32:59.262Z,65.20
2018-04-12T08:35:26.822Z,65.30
2018-04-12T08:37:54.367Z,65.80
2018-04-12T08:40:22.074Z,65.00
2018-04-12T08:42:49.637Z,65.00
2018-04-12T08:45:17.181Z,65.00
2018-04-12T08:47:44.813Z,64.90
2018-04-12T08:50:12.379Z,64.80
2018-04-12T08:52:39.914Z,64.70
2018-04-12T08:55:08.273Z,64.50
2018-04-12T08:57:35.845Z,64.50
2018-04-12T09:00:03.442Z,64.40
2018-04-12T09:02:31.008Z,64.10
2018-04-12T09:04:58.599Z,63.90
2018-04-12T09:07:26.200Z,63.50
2018-04-12T09:09:53.861Z,64.30
2018-04-12T09:12:21.642Z,63.40
2018-04-12T09:14:49.408Z,63.30
2018-04-12T09:17:17.053Z,63.00
2018-04-12T09:19:44.737Z,63.00
2018-04-12T09:22:12.316Z,63.00
2018-04-12T09:24:39.895Z,62.50
2018-04-12T09:27:07.468Z,62.80
2018-04-12T09:29:35.035Z,62.40
2018-04-12T09:32:03.351Z,61.30
2018-04-12T09:34:32.072Z,61.30
2018-04-12T09:36:59.706Z,60.80
2018-04-12T09:39:27.307Z,60.60
2018-04-12T09:41:54.866Z,60.50
2018-04-12T09:44:22.463Z,60.20
2018-04-12T09:46:50.019Z,60.70
2018-04-12T09:49:17.676Z,60.50
2018-04-12T09:51:45.208Z,60.20
2018-04-12T09:54:12.761Z,60.40
2018-04-12T09:56:40.410Z,60.30
2018-04-12T09:59:08.909Z,59.60
2018-04-12T10:01:42.187Z,60.50
2018-04-12T10:04:15.301Z,59.80
2018-04-12T10:06:43.655Z,60.00
2018-04-12T10:09:14.616Z,60.00
2018-04-12T10:11:43.017Z,59.30
2018-04-12T10:14:10.591Z,59.30
2018-04-12T10:16:38.181Z,59.30
2018-04-12T10:19:05.740Z,58.90
2018-04-12T10:21:33.264Z,59.30
2018-04-12T10:24:00.867Z,58.50
2018-04-12T10:26:28.410Z,59.00
2018-04-12T10:28:56.153Z,58.50
2018-04-12T10:31:23.763Z,58.30
2018-04-12T10:33:52.592Z,58.10
2018-04-12T10:36:20.160Z,57.80
2018-04-12T10:38:47.857Z,56.90
2018-04-12T10:41:15.454Z,57.40
2018-04-12T10:43:43.145Z,56.90
2018-04-12T10:46:10.732Z,57.10
2018-04-12T10:48:38.355Z,56.90
2018-04-12T10:51:05.966Z,57.40
2018-04-12T10:53:33.514Z,56.70
2018-04-12T10:56:01.074Z,57.10
2018-04-12T10:58:28.630Z,56.70
2018-04-12T11:00:56.202Z,56.80
2018-04-12T11:03:23.845Z,55.80
2018-04-12T11:05:51.403Z,55.80
2018-04-12T11:08:18.964Z,56.00
2018-04-12T11:10:46.523Z,56.50
2018-04-12T11:13:14.060Z,56.50
2018-04-12T11:15:41.646Z,56.20
2018-04-12T11:18:09.362Z,56.20
2018-04-12T11:20:36.926Z,56.00
2018-04-12T11:23:05.246Z,56.10
2018-04-12T11:25:32.830Z,56.10
2018-04-12T11:28:00.393Z,56.00
2018-04-12T11:30:27.997Z,55.70
2018-04-12T11:32:55.547Z,55.60
2018-04-12T11:35:23.142Z,55.70
2018-04-12T11:37:50.664Z,55.60
2018-04-12T11:40:18.247Z,56.00
2018-04-12T11:42:45.777Z,55.40
2018-04-12T11:45:13.363Z,56.00
2018-04-12T11:47:41.016Z,55.90
2018-04-12T11:50:09.277Z,55.90
2018-04-12T11:52:37.783Z,55.80
2018-04-12T11:55:05.350Z,55.70
2018-04-12T11:57:32.885Z,55.60
2018-04-12T12:00:01.464Z,55.70
2018-04-12T12:02:29.016Z,55.70
2018-04-12T12:04:57.367Z,56.00
2018-04-12T12:07:24.919Z,56.00
2018-04-12T12:09:52.533Z,54.90
2018-04-12T12:12:20.081Z,55.60
2018-04-12T12:14:47.789Z,55.60
2018-04-12T12:17:15.449Z,55.80
2018-04-12T12:19:43.124Z,55.60
2018-04-12T12:22:10.678Z,55.70
2018-04-12T12:24:38.275Z,55.60
2018-04-12T12:27:05.913Z,55.80
2018-04-12T12:29:33.504Z,55.80
2018-04-12T12:32:01.967Z,55.80
2018-04-12T12:34:30.334Z,55.30
2018-04-12T12:37:09.801Z,55.30
2018-04-12T12:39:43.291Z,55.60
2018-04-12T12:42:10.828Z,55.60
2018-04-12T12:44:38.409Z,55.60
2018-04-12T12:47:06.004Z,55.50
2018-04-12T12:49:33.662Z,55.30
2018-04-12T12:52:01.274Z,55.60
2018-04-12T12:54:28.864Z,54.90
2018-04-12T12:56:56.449Z,54.20
2018-04-12T12:59:24.036Z,54.30
2018-04-12T13:01:51.591Z,54.40
2018-04-12T13:04:19.158Z,54.40
2018-04-12T13:06:46.707Z,54.50
2018-04-12T13:09:14.277Z,54.80
2018-04-12T13:11:47.783Z,54.60
2018-04-12T13:14:15.355Z,54.00
2018-04-12T13:16:48.791Z,52.80
2018-04-12T13:19:16.618Z,52.60
2018-04-12T13:21:44.244Z,51.50
2018-04-12T13:24:17.432Z,50.90
2018-04-12T13:26:44.964Z,48.70
2018-04-12T13:29:14.618Z,47.20
2018-04-12T13:31:47.822Z,47.30
2018-04-12T13:34:22.108Z,46.20
2018-04-12T13:36:55.628Z,46.10
2018-04-12T13:39:34.824Z,46.20
2018-04-12T13:42:08.959Z,46.30
2018-04-12T13:44:37.875Z,46.90
2018-04-12T13:47:05.461Z,47.80
2018-04-12T13:49:38.784Z,48.40
2018-04-12T13:52:11.930Z,48.60
2018-04-12T13:54:39.586Z,49.80
2018-04-12T13:57:07.344Z,49.50
2018-04-12T13:59:34.884Z,49.60
2018-04-12T14:02:02.460Z,49.70
2018-04-12T14:04:30.058Z,49.80
2018-04-12T14:07:01.492Z,49.70
2018-04-12T14:09:29.803Z,49.80
2018-04-12T14:11:57.378Z,49.90
2018-04-12T14:14:24.918Z,48.90
2018-04-12T14:16:52.494Z,47.40
2018-04-12T14:19:25.824Z,46.40
2018-04-12T14:21:59.328Z,46.20
2018-04-12T14:24:26.886Z,44.70
2018-04-12T14:26:54.487Z,44.50
2018-04-12T14:29:22.057Z,44.60
2018-04-12T14:31:49.819Z,44.90
2018-04-12T14:34:17.377Z,45.20
2018-04-12T14:36:44.937Z,45.10
2018-04-12T14:39:12.551Z,44.20
2018-04-12T14:41:40.113Z,45.00
2018-04-12T14:44:07.942Z,45.50
2018-04-12T14:46:41.498Z,45.00
2018-04-12T14:49:15.029Z,45.90
2018-04-12T14:51:48.549Z,46.00
2018-04-12T14:54:21.944Z,46.20
2018-04-12T14:56:49.600Z,45.20
2018-04-12T14:59:17.135Z,45.50
2018-04-12T15:01:46.024Z,45.40
2018-04-12T15:04:15.601Z,45.80
2018-04-12T15:06:43.203Z,45.80
2018-04-12T15:09:10.743Z,46.10
2018-04-12T15:11:44.003Z,45.90
2018-04-12T15:14:11.525Z,45.80
2018-04-12T15:16:39.441Z,46.00
2018-04-12T15:19:12.622Z,46.40
2018-04-12T15:21:40.247Z,46.00
2018-04-12T15:24:07.790Z,47.30
2018-04-12T15:26:35.379Z,46.50
2018-04-12T15:29:02.920Z,47.00
2018-04-12T15:31:30.491Z,47.00
2018-04-12T15:34:04.103Z,46.90
2018-04-12T15:36:31.720Z,47.30
2018-04-12T15:38:59.386Z,48.50
2018-04-12T15:41:32.936Z,47.20
2018-04-12T15:44:06.849Z,47.40
2018-04-12T15:46:36.797Z,47.40
2018-04-12T15:49:04.418Z,47.30
2018-04-12T15:51:32.075Z,47.30
2018-04-12T15:53:59.622Z,47.40
2018-04-12T15:56:32.978Z,46.90
2018-04-12T15:59:00.542Z,47.60
2018-04-12T16:01:40.896Z,47.70
2018-04-12T16:04:15.121Z,47.80
2018-04-12T16:06:43.469Z,48.60
2018-04-12T16:09:16.860Z,48.50
2018-04-12T16:11:44.515Z,48.50
2018-04-12T16:14:12.285Z,48.50
2018-04-12T16:16:46.435Z,48.50
2018-04-12T16:19:14.044Z,48.40
2018-04-12T16:21:41.663Z,49.30
2018-04-12T16:24:09.251Z,48.40
2018-04-12T16:26:39.704Z,48.40
2018-04-12T16:29:07.349Z,48.50
2018-04-12T16:31:34.992Z,48.40
2018-04-12T16:34:08.740Z,48.30
2018-04-12T16:36:43.266Z,48.30
2018-04-12T16:39:11.168Z,48.20
2018-04-12T16:41:44.653Z,48.20
2018-04-12T16:44:20.196Z,48.00
2018-04-12T16:46:47.949Z,48.00
2018-04-12T16:49:15.517Z,48.20
2018-04-12T16:51:44.406Z,48.60
2018-04-12T16:54:23.744Z,49.30
2018-04-12T16:56:57.299Z,49.00
2018-04-12T16:59:24.865Z,49.40
2018-04-12T17:01:52.443Z,49.70
2018-04-12T17:04:19.988Z,49.70
2018-04-12T17:06:48.875Z,51.20
2018-04-12T17:09:16.424Z,50.40
2018-04-12T17:11:49.873Z,51.10
2018-04-12T17:14:23.169Z,51.10
2018-04-12T17:16:58.608Z,51.40
2018-04-12T17:19:27.017Z,51.90
2018-04-12T17:22:00.266Z,51.80
2018-04-12T17:24:28.730Z,51.80
2018-04-12T17:27:01.980Z,52.10
2018-04-12T17:29:32.634Z,52.00
2018-04-12T17:32:05.751Z,52.30
2018-04-12T17:34:35.457Z,52.20
2018-04-12T17:37:03.145Z,52.70
2018-04-12T17:39:32.230Z,52.70
2018-04-12T17:42:00.260Z,53.00
2018-04-12T17:44:39.919Z,53.30
2018-04-12T17:47:13.578Z,53.40
2018-04-12T17:49:46.868Z,53.40
2018-04-12T17:52:14.572Z,53.30
2018-04-12T17:54:42.978Z,53.20
2018-04-12T17:57:10.734Z,53.20
2018-04-12T17:59:45.330Z,53.10
2018-04-12T18:02:13.805Z,53.30
2018-04-12T18:04:47.329Z,53.30
2018-04-12T18:07:20.429Z,53.10
2018-04-12T18:09:53.924Z,53.00
2018-04-12T18:12:21.469Z,53.40
2018-04-12T18:14:57.388Z,53.30
2018-04-12T18:17:30.707Z,53.60
2018-04-12T18:20:04.395Z,53.80
2018-04-12T18:22:32.024Z,53.70
2018-04-12T18:24:59.643Z,53.90
2018-04-12T18:27:27.311Z,53.90
2018-04-12T18:30:06.778Z,53.90
2018-04-12T18:32:40.209Z,53.90
2018-04-12T18:35:13.582Z,54.00
2018-04-12T18:37:47.142Z,54.00
2018-04-12T18:40:14.729Z,54.10
2018-04-12T18:42:42.314Z,54.20
2018-04-12T18:45:09.988Z,54.00
2018-04-12T18:47:37.572Z,54.10
2018-04-12T18:50:10.743Z,54.20
2018-04-12T18:52:38.324Z,54.40
2018-04-12T18:55:05.918Z,54.30
2018-04-12T18:57:40.877Z,54.60
2018-04-12T19:00:09.176Z,54.80
2018-04-12T19:02:36.769Z,54.80
2018-04-12T19:05:10.223Z,54.90
2018-04-12T19:07:37.866Z,55.00
2018-04-12T19:10:06.367Z,55.00
2018-04-12T19:12:33.910Z,55.00
2018-04-12T19:15:07.139Z,55.10
2018-04-12T19:17:40.593Z,54.90
2018-04-12T19:20:09.015Z,54.90
2018-04-12T19:22:37.933Z,54.80
2018-04-12T19:25:05.702Z,55.00
2018-04-12T19:27:39.466Z,54.80
2018-04-12T19:30:07.809Z,54.90
2018-04-12T19:32:36.142Z,54.90
2018-04-12T19:35:03.748Z,54.90
2018-04-12T19:37:31.501Z,54.90
2018-04-12T19:40:11.430Z,55.00
2018-04-12T19:42:44.716Z,54.90
2018-04-12T19:45:18.067Z,54.90
2018-04-12T19:47:46.411Z,55.00
2018-04-12T19:50:19.725Z,54.90
2018-04-12T19:52:47.307Z,54.80
2018-04-12T19:55:20.728Z,54.90
2018-04-12T19:57:48.468Z,54.90
2018-04-12T20:00:27.677Z,55.80
2018-04-12T20:02:55.255Z,54.70
2018-04-12T20:05:23.718Z,55.00
2018-04-12T20:07:52.277Z,54.70
2018-04-12T20:10:19.834Z,54.60
2018-04-12T20:12:47.419Z,54.80
2018-04-12T20:15:21.381Z,55.00
2018-04-12T20:17:48.985Z,54.90
2018-04-12T20:20:22.311Z,55.10
2018-04-12T20:22:55.850Z,54.90
2018-04-12T20:25:29.314Z,55.10
2018-04-12T20:28:02.521Z,55.30
2018-04-12T20:30:30.036Z,55.10
2018-04-12T20:32:58.381Z,56.00
2018-04-12T20:35:25.922Z,55.20
2018-04-12T20:37:53.500Z,55.30
2018-04-12T20:40:21.059Z,55.50
2018-04-12T20:42:55.701Z,55.20
2018-04-12T20:45:29.045Z,55.20
2018-04-12T20:48:02.519Z,55.40
2018-04-12T20:50:30.851Z,55.50
2018-04-12T20:52:58.440Z,55.50
2018-04-12T20:55:25.999Z,55.60
2018-04-12T20:57:53.805Z,55.70
2018-04-12T21:00:34.226Z,55.60
2018-04-12T21:03:07.715Z,55.60
2018-04-12T21:05:35.316Z,55.60
2018-04-12T21:08:08.763Z,55.60
2018-04-12T21:10:36.251Z,55.70
2018-04-12T21:13:10.293Z,55.70
2018-04-12T21:15:37.831Z,55.70
2018-04-12T21:18:06.751Z,55.90
2018-04-12T21:20:34.280Z,56.00
2018-04-12T21:23:02.602Z,55.90
2018-04-12T21:25:30.147Z,55.90
2018-04-12T21:27:59.108Z,56.10
2018-04-12T21:30:27.417Z,56.30
2018-04-12T21:33:06.558Z,56.30
2018-04-12T21:35:34.116Z,56.30
2018-04-12T21:38:01.658Z,56.40
2018-04-12T21:40:36.427Z,56.50
2018-04-12T21:43:09.581Z,56.50
2018-04-12T21:45:42.986Z,56.50
2018-04-12T21:48:10.597Z,56.50
2018-04-12T21:50:38.135Z,56.70
2018-04-12T21:53:05.717Z,57.00
2018-04-12T21:55:34.795Z,57.30
2018-04-12T21:58:02.405Z,57.30
2018-04-12T22:00:30.133Z,57.50
2018-04-12T22:02:57.669Z,58.00
2018-04-12T22:05:25.255Z,57.80
2018-04-12T22:07:53.118Z,57.80
2018-04-12T22:10:28.887Z,57.70
2018-04-12T22:12:57.478Z,57.80
2018-04-12T22:15:26.416Z,57.70
2018-04-12T22:18:05.513Z,57.70
2018-04-12T22:20:33.255Z,57.60
2018-04-12T22:23:01.573Z,57.70
2018-04-12T22:25:34.849Z,57.60
2018-04-12T22:28:02.428Z,57.60
2018-04-12T22:30:29.969Z,57.50
2018-04-12T22:32:57.676Z,57.50
2018-04-12T22:35:25.231Z,57.50
2018-04-12T22:37:58.452Z,57.50
2018-04-12T22:40:26.187Z,57.50
2018-04-12T22:43:05.341Z,57.50
2018-04-12T22:45:33.166Z,57.40
2018-04-12T22:48:06.671Z,57.40
2018-04-12T22:50:34.250Z,57.40
2018-04-12T22:53:07.307Z,57.40
2018-04-12T22:55:40.423Z,57.40
2018-04-12T22:58:07.982Z,57.30
2018-04-12T23:00:36.968Z,57.30
2018-04-12T23:03:10.178Z,57.30
2018-04-12T23:05:37.839Z,57.30
2018-04-12T23:08:05.589Z,57.30
2018-04-12T23:10:33.131Z,57.30
2018-04-12T23:13:07.544Z,57.30
2018-04-12T23:15:35.089Z,57.20
2018-04-12T23:18:02.663Z,57.20
2018-04-12T23:20:30.224Z,57.20
2018-04-12T23:22:58.015Z,57.20
2018-04-12T23:25:25.592Z,57.20
2018-04-12T23:28:05.212Z,57.20
2018-04-12T23:30:32.755Z,57.20
2018-04-12T23:33:00.292Z,57.20
2018-04-12T23:35:29.215Z,57.20
2018-04-12T23:38:02.684Z,57.20
2018-04-12T23:40:35.992Z,57.20
2018-04-12T23:43:03.546Z,57.00
2018-04-12T23:45:37.283Z,57.10
2018-04-12T23:48:04.847Z,57.00
2018-04-12T23:50:32.388Z,56.90
2018-04-12T23:52:59.927Z,57.00
2018-04-12T23:55:33.154Z,57.00
2018-04-12T23:58:00.808Z,57.00
